createdAt,value
2019-02-22T00:00:38.590Z,80.05
2019-02-22T00:01:12.632Z,79.82
2019-02-22T00:01:45.790Z,80.11
2019-02-22T00:02:18.991Z,79.76
2019-02-22T00:02:50.235Z,79.86
2019-02-22T00:03:21.556Z,79.91
2019-02-22T00:03:52.832Z,80.01
2019-02-22T00:04:24.210Z,79.75
2019-02-22T00:04:55.478Z,80.00
2019-02-22T00:05:26.778Z,79.20
2019-02-22T00:05:58.024Z,79.10
2019-02-22T00:06:31.241Z,79.31
2019-02-22T00:07:02.466Z,79.51
2019-02-22T00:07:33.778Z,79.06
2019-02-22T00:08:05.020Z,79.27
2019-02-22T00:08:36.337Z,79.14
2019-02-22T00:09:07.541Z,79.15
2019-02-22T00:09:48.851Z,78.17
2019-02-22T00:10:12.195Z,78.30
2019-02-22T00:10:43.506Z,78.30
2019-02-22T00:11:14.747Z,77.84
2019-02-22T00:11:46.132Z,77.09
2019-02-22T00:12:17.356Z,77.09
2019-02-22T00:12:48.688Z,77.24
2019-02-22T00:13:19.935Z,77.60
2019-02-22T00:13:51.244Z,77.05
2019-02-22T00:14:22.508Z,77.54
2019-02-22T00:14:53.833Z,77.54
2019-02-22T00:15:25.077Z,77.88
2019-02-22T00:15:56.399Z,77.97
2019-02-22T00:16:27.629Z,78.39
2019-02-22T00:16:59.034Z,78.03
2019-02-22T00:17:30.280Z,78.42
2019-02-22T00:18:01.601Z,78.54
2019-02-22T00:18:32.823Z,78.54
2019-02-22T00:19:04.133Z,78.66
2019-02-22T00:19:35.371Z,78.81
2019-02-22T00:20:06.863Z,79.14
2019-02-22T00:20:38.226Z,79.35
2019-02-22T00:21:09.533Z,79.35
2019-02-22T00:21:40.815Z,78.18
2019-02-22T00:22:12.227Z,78.18
2019-02-22T00:22:44.529Z,78.36
2019-02-22T00:23:15.860Z,78.51
2019-02-22T00:23:47.114Z,78.18
2019-02-22T00:24:18.435Z,78.38
2019-02-22T00:24:49.673Z,77.98
2019-02-22T00:25:22.019Z,78.41
2019-02-22T00:25:53.252Z,78.05
2019-02-22T00:26:24.598Z,78.12
2019-02-22T00:26:55.855Z,78.42
2019-02-22T00:27:27.182Z,78.55
2019-02-22T00:27:58.514Z,78.70
2019-02-22T00:28:29.870Z,78.69
2019-02-22T00:29:01.146Z,78.28
2019-02-22T00:29:32.433Z,78.28
2019-02-22T00:30:05.917Z,78.42
2019-02-22T00:30:37.206Z,77.76
2019-02-22T00:31:08.504Z,76.79
2019-02-22T00:31:39.782Z,76.79
2019-02-22T00:32:11.024Z,77.15
2019-02-22T00:32:42.710Z,77.03
2019-02-22T00:33:14.082Z,76.92
2019-02-22T00:33:45.366Z,76.88
2019-02-22T00:34:16.814Z,76.88
2019-02-22T00:34:48.172Z,76.95
2019-02-22T00:35:19.514Z,77.18
2019-02-22T00:35:50.826Z,77.38
2019-02-22T00:36:22.209Z,77.99
2019-02-22T00:36:53.510Z,77.99
2019-02-22T00:37:24.873Z,78.00
2019-02-22T00:37:56.191Z,77.90
2019-02-22T00:38:27.430Z,78.21
2019-02-22T00:38:58.703Z,77.12
2019-02-22T00:39:29.983Z,77.21
2019-02-22T00:40:01.453Z,77.35
2019-02-22T00:40:32.861Z,78.06
2019-02-22T00:41:04.095Z,78.06
2019-02-22T00:41:35.426Z,77.70
2019-02-22T00:42:06.669Z,77.30
2019-02-22T00:42:37.972Z,77.49
2019-02-22T00:43:09.251Z,77.49
2019-02-22T00:43:40.544Z,77.64
2019-02-22T00:44:11.821Z,77.40
2019-02-22T00:44:43.332Z,77.58
2019-02-22T00:45:14.602Z,77.79
2019-02-22T00:45:45.874Z,77.46
2019-02-22T00:46:17.159Z,76.81
2019-02-22T00:46:48.437Z,76.25
2019-02-22T00:47:19.734Z,76.11
2019-02-22T00:47:50.997Z,75.68
2019-02-22T00:48:22.254Z,76.17
2019-02-22T00:48:53.530Z,77.13
2019-02-22T00:49:24.809Z,77.13
2019-02-22T00:49:56.112Z,76.88
2019-02-22T00:50:27.383Z,76.79
2019-02-22T00:50:58.663Z,76.79
2019-02-22T00:51:29.934Z,77.00
2019-02-22T00:52:01.201Z,77.01
2019-02-22T00:52:32.470Z,76.89
2019-02-22T00:53:03.892Z,77.01
2019-02-22T00:53:35.197Z,76.98
2019-02-22T00:54:06.470Z,76.93
2019-02-22T00:54:37.758Z,76.54
2019-02-22T00:55:09.061Z,76.68
2019-02-22T00:55:40.430Z,76.50
2019-02-22T00:56:11.705Z,76.87
2019-02-22T00:56:43.210Z,76.80
2019-02-22T00:57:14.492Z,77.07
2019-02-22T00:57:45.785Z,76.61
2019-02-22T00:58:17.061Z,76.21
2019-02-22T00:58:48.347Z,76.90
2019-02-22T00:59:19.679Z,76.33
2019-02-22T00:59:50.943Z,76.33
2019-02-22T01:00:22.252Z,76.79
2019-02-22T01:00:53.491Z,77.02
2019-02-22T01:01:25.807Z,77.25
2019-02-22T01:01:58.033Z,77.39
2019-02-22T01:02:29.284Z,77.36
2019-02-22T01:03:01.543Z,77.42
2019-02-22T01:03:32.847Z,77.28
2019-02-22T01:04:04.111Z,77.26
2019-02-22T01:04:35.395Z,77.08
2019-02-22T01:05:06.621Z,77.33
2019-02-22T01:05:38.051Z,77.55
2019-02-22T01:06:09.303Z,77.61
2019-02-22T01:06:40.619Z,77.90
2019-02-22T01:07:11.906Z,77.64
2019-02-22T01:07:43.415Z,77.71
2019-02-22T01:08:14.671Z,77.50
2019-02-22T01:08:46.223Z,77.81
2019-02-22T01:09:17.468Z,77.70
2019-02-22T01:09:48.768Z,77.86
2019-02-22T01:10:30.422Z,77.78
2019-02-22T01:10:53.241Z,77.69
2019-02-22T01:11:24.486Z,76.70
2019-02-22T01:11:55.802Z,76.70
2019-02-22T01:12:27.054Z,76.81
2019-02-22T01:12:58.356Z,77.04
2019-02-22T01:13:29.704Z,77.52
2019-02-22T01:14:01.024Z,77.33
2019-02-22T01:14:32.404Z,77.23
2019-02-22T01:15:05.150Z,77.23
2019-02-22T01:15:36.603Z,76.94
2019-02-22T01:16:07.976Z,77.30
2019-02-22T01:16:40.310Z,77.30
2019-02-22T01:17:11.658Z,77.51
2019-02-22T01:17:43.239Z,77.47
2019-02-22T01:18:14.603Z,77.16
2019-02-22T01:18:46.006Z,77.16
2019-02-22T01:19:17.439Z,76.87
2019-02-22T01:19:48.769Z,77.08
2019-02-22T01:20:20.217Z,77.10
2019-02-22T01:20:54.472Z,77.15
2019-02-22T01:21:24.705Z,77.33
2019-02-22T01:21:56.020Z,77.30
2019-02-22T01:22:27.266Z,77.07
2019-02-22T01:22:58.601Z,76.75
2019-02-22T01:23:29.872Z,76.75
2019-02-22T01:24:01.194Z,76.58
2019-02-22T01:24:32.501Z,76.23
2019-02-22T01:25:04.077Z,76.08
2019-02-22T01:25:35.491Z,76.20
2019-02-22T01:26:06.827Z,76.27
2019-02-22T01:26:38.137Z,76.23
2019-02-22T01:27:09.538Z,76.43
2019-02-22T01:27:40.911Z,76.52
2019-02-22T01:28:15.014Z,76.39
2019-02-22T01:28:46.512Z,76.38
2019-02-22T01:29:17.900Z,76.42
2019-02-22T01:29:49.207Z,76.32
2019-02-22T01:30:20.433Z,76.29
2019-02-22T01:30:51.748Z,76.58
2019-02-22T01:31:22.983Z,76.61
2019-02-22T01:31:54.314Z,76.53
2019-02-22T01:32:25.568Z,76.01
2019-02-22T01:32:56.882Z,76.01
2019-02-22T01:33:28.112Z,75.84
2019-02-22T01:33:59.438Z,76.02
2019-02-22T01:34:30.686Z,75.71
2019-02-22T01:35:02.006Z,75.55
2019-02-22T01:35:34.400Z,75.13
2019-02-22T01:36:05.822Z,75.48
2019-02-22T01:36:37.156Z,75.59
2019-02-22T01:37:08.504Z,75.39
2019-02-22T01:37:39.769Z,75.39
2019-02-22T01:38:11.128Z,75.28
2019-02-22T01:38:43.355Z,75.28
2019-02-22T01:39:14.778Z,75.72
2019-02-22T01:39:46.069Z,75.07
2019-02-22T01:40:17.449Z,75.07
2019-02-22T01:40:48.788Z,74.62
2019-02-22T01:41:20.240Z,74.54
2019-02-22T01:41:51.583Z,74.77
2019-02-22T01:42:23.927Z,74.68
2019-02-22T01:42:55.380Z,74.69
2019-02-22T01:43:26.698Z,74.76
2019-02-22T01:43:58.051Z,74.73
2019-02-22T01:44:29.391Z,74.20
2019-02-22T01:45:00.695Z,74.37
2019-02-22T01:45:31.923Z,74.83
2019-02-22T01:46:03.387Z,74.52
2019-02-22T01:46:34.601Z,74.92
2019-02-22T01:47:05.899Z,75.31
2019-02-22T01:47:37.159Z,75.23
2019-02-22T01:48:08.472Z,75.09
2019-02-22T01:48:39.733Z,75.22
2019-02-22T01:49:11.022Z,75.13
2019-02-22T01:49:42.265Z,75.18
2019-02-22T01:50:20.580Z,74.67
2019-02-22T01:50:51.901Z,74.59
2019-02-22T01:51:23.304Z,74.53
2019-02-22T01:51:54.556Z,74.72
2019-02-22T01:52:25.872Z,74.51
2019-02-22T01:52:57.111Z,74.79
2019-02-22T01:53:28.431Z,74.98
2019-02-22T01:53:59.654Z,74.44
2019-02-22T01:54:31.976Z,74.32
2019-02-22T01:55:03.265Z,74.63
2019-02-22T01:55:34.775Z,74.37
2019-02-22T01:56:06.222Z,74.37
2019-02-22T01:56:37.548Z,74.70
2019-02-22T01:57:08.959Z,74.83
2019-02-22T01:57:40.299Z,74.89
2019-02-22T01:58:11.745Z,74.57
2019-02-22T01:58:48.724Z,74.23
2019-02-22T01:59:16.481Z,74.41
2019-02-22T01:59:47.808Z,74.68
2019-02-22T02:00:19.147Z,75.00
2019-02-22T02:00:50.468Z,75.14
2019-02-22T02:01:21.780Z,75.27
2019-02-22T02:01:53.113Z,75.29
2019-02-22T02:02:24.420Z,75.20
2019-02-22T02:02:55.677Z,75.43
2019-02-22T02:03:26.989Z,75.46
2019-02-22T02:03:58.237Z,75.46
2019-02-22T02:04:29.691Z,75.04
2019-02-22T02:05:00.987Z,75.16
2019-02-22T02:05:32.337Z,75.23
2019-02-22T02:06:03.707Z,75.33
2019-02-22T02:06:35.042Z,75.39
2019-02-22T02:07:06.371Z,75.55
2019-02-22T02:07:38.738Z,75.74
2019-02-22T02:08:10.183Z,75.52
2019-02-22T02:08:41.505Z,75.08
2019-02-22T02:09:12.864Z,74.90
2019-02-22T02:09:44.251Z,75.09
2019-02-22T02:10:15.649Z,75.18
2019-02-22T02:10:53.893Z,75.25
2019-02-22T02:11:20.076Z,75.30
2019-02-22T02:11:51.309Z,74.80
2019-02-22T02:12:22.616Z,74.78
2019-02-22T02:12:53.838Z,74.87
2019-02-22T02:13:25.144Z,75.06
2019-02-22T02:13:56.427Z,74.78
2019-02-22T02:14:27.734Z,74.64
2019-02-22T02:14:58.998Z,74.67
2019-02-22T02:15:30.310Z,74.67
2019-02-22T02:16:01.548Z,74.64
2019-02-22T02:16:33.866Z,74.59
2019-02-22T02:17:05.110Z,74.58
2019-02-22T02:17:36.471Z,74.75
2019-02-22T02:18:07.776Z,74.84
2019-02-22T02:18:39.136Z,74.36
2019-02-22T02:19:10.358Z,74.36
2019-02-22T02:19:42.776Z,74.41
2019-02-22T02:20:14.166Z,74.73
2019-02-22T02:20:45.980Z,75.02
2019-02-22T02:21:17.391Z,75.25
2019-02-22T02:21:48.845Z,75.05
2019-02-22T02:22:20.217Z,74.72
2019-02-22T02:22:51.574Z,74.72
2019-02-22T02:23:22.917Z,74.56
2019-02-22T02:23:54.261Z,74.70
2019-02-22T02:24:25.687Z,74.71
2019-02-22T02:24:57.007Z,74.69
2019-02-22T02:25:28.331Z,74.89
2019-02-22T02:25:59.571Z,74.78
2019-02-22T02:26:30.879Z,74.73
2019-02-22T02:27:02.113Z,74.20
2019-02-22T02:27:33.437Z,74.18
2019-02-22T02:28:04.667Z,74.18
2019-02-22T02:28:35.985Z,74.07
2019-02-22T02:29:07.248Z,74.37
2019-02-22T02:29:38.568Z,74.08
2019-02-22T02:30:09.830Z,73.83
2019-02-22T02:30:41.208Z,73.87
2019-02-22T02:31:12.740Z,73.82
2019-02-22T02:31:44.145Z,74.16
2019-02-22T02:32:15.368Z,74.33
2019-02-22T02:32:46.677Z,74.04
2019-02-22T02:33:18.081Z,74.42
2019-02-22T02:33:49.459Z,74.42
2019-02-22T02:34:20.749Z,74.27
2019-02-22T02:34:52.102Z,74.54
2019-02-22T02:35:23.409Z,74.85
2019-02-22T02:35:54.638Z,74.56
2019-02-22T02:36:26.050Z,74.34
2019-02-22T02:36:57.294Z,73.87
2019-02-22T02:37:28.600Z,73.72
2019-02-22T02:37:59.873Z,73.93
2019-02-22T02:38:31.199Z,73.30
2019-02-22T02:39:03.847Z,73.53
2019-02-22T02:39:37.097Z,73.59
2019-02-22T02:40:08.397Z,74.08
2019-02-22T02:40:39.635Z,74.09
2019-02-22T02:41:11.589Z,73.79
2019-02-22T02:41:44.389Z,73.93
2019-02-22T02:42:15.613Z,73.90
2019-02-22T02:42:46.888Z,73.84
2019-02-22T02:43:18.091Z,73.91
2019-02-22T02:43:49.337Z,73.63
2019-02-22T02:44:20.510Z,73.45
2019-02-22T02:44:51.799Z,73.52
2019-02-22T02:45:22.995Z,73.25
2019-02-22T02:45:54.301Z,73.16
2019-02-22T02:46:25.565Z,73.50
2019-02-22T02:46:56.821Z,73.93
2019-02-22T02:47:28.264Z,74.06
2019-02-22T02:47:59.713Z,73.45
2019-02-22T02:48:31.078Z,73.45
2019-02-22T02:49:02.469Z,73.75
2019-02-22T02:49:33.778Z,73.41
2019-02-22T02:50:06.591Z,73.46
2019-02-22T02:50:37.911Z,73.51
2019-02-22T02:51:09.259Z,73.65
2019-02-22T02:51:40.523Z,73.04
2019-02-22T02:52:11.752Z,73.04
2019-02-22T02:52:43.558Z,73.08
2019-02-22T02:53:15.849Z,73.01
2019-02-22T02:53:47.046Z,73.11
2019-02-22T02:54:18.284Z,72.85
2019-02-22T02:54:49.524Z,72.83
2019-02-22T02:55:28.351Z,72.46
2019-02-22T02:55:59.688Z,72.72
2019-02-22T02:56:30.925Z,72.85
2019-02-22T02:57:02.163Z,73.00
2019-02-22T02:57:33.528Z,73.08
2019-02-22T02:58:04.915Z,73.29
2019-02-22T02:58:36.306Z,73.41
2019-02-22T02:59:07.689Z,73.27
2019-02-22T02:59:39.032Z,73.21
2019-02-22T03:00:10.489Z,73.51
2019-02-22T03:00:41.882Z,73.45
2019-02-22T03:01:14.223Z,73.75
2019-02-22T03:01:45.851Z,73.80
2019-02-22T03:02:18.915Z,73.89
2019-02-22T03:02:50.185Z,73.66
2019-02-22T03:03:21.468Z,73.81
2019-02-22T03:03:52.823Z,73.45
2019-02-22T03:04:24.099Z,73.43
2019-02-22T03:04:55.397Z,73.37
2019-02-22T03:05:28.518Z,73.14
2019-02-22T03:06:01.637Z,73.05
2019-02-22T03:06:46.492Z,73.31
2019-02-22T03:07:35.962Z,73.03
2019-02-22T03:08:07.243Z,72.88
2019-02-22T03:08:38.581Z,72.75
2019-02-22T03:09:09.830Z,73.01
2019-02-22T03:09:41.729Z,72.87
2019-02-22T03:10:12.953Z,72.81
2019-02-22T03:10:44.379Z,72.67
2019-02-22T03:11:20.585Z,72.89
2019-02-22T03:11:49.189Z,72.50
2019-02-22T03:12:20.567Z,72.57
2019-02-22T03:12:51.931Z,72.32
2019-02-22T03:13:23.304Z,72.55
2019-02-22T03:13:54.755Z,72.89
2019-02-22T03:14:26.153Z,72.72
2019-02-22T03:14:57.478Z,72.75
2019-02-22T03:15:28.891Z,73.20
2019-02-22T03:16:00.171Z,72.88
2019-02-22T03:16:31.375Z,72.89
2019-02-22T03:17:02.643Z,73.17
2019-02-22T03:17:34.987Z,73.11
2019-02-22T03:18:06.407Z,73.02
2019-02-22T03:18:37.725Z,73.19
2019-02-22T03:19:09.102Z,73.15
2019-02-22T03:19:40.449Z,73.11
2019-02-22T03:20:11.891Z,73.23
2019-02-22T03:20:44.428Z,73.02
2019-02-22T03:21:16.898Z,73.05
2019-02-22T03:21:48.273Z,73.03
2019-02-22T03:22:19.716Z,72.98
2019-02-22T03:22:51.245Z,72.84
2019-02-22T03:23:22.656Z,72.92
2019-02-22T03:23:53.956Z,72.70
2019-02-22T03:24:25.441Z,72.23
2019-02-22T03:24:56.721Z,72.17
2019-02-22T03:25:28.112Z,72.16
2019-02-22T03:25:59.387Z,72.44
2019-02-22T03:26:30.747Z,72.67
2019-02-22T03:27:02.166Z,72.68
2019-02-22T03:27:33.562Z,72.82
2019-02-22T03:28:04.951Z,72.82
2019-02-22T03:28:36.425Z,72.69
2019-02-22T03:29:07.707Z,72.97
2019-02-22T03:29:39.019Z,72.82
2019-02-22T03:30:10.310Z,72.65
2019-02-22T03:30:41.914Z,72.45
2019-02-22T03:31:13.221Z,72.36
2019-02-22T03:31:44.583Z,72.73
2019-02-22T03:32:15.877Z,72.65
2019-02-22T03:32:47.276Z,72.02
2019-02-22T03:33:18.658Z,72.42
2019-02-22T03:33:50.103Z,72.47
2019-02-22T03:34:21.427Z,72.40
2019-02-22T03:34:52.674Z,72.68
2019-02-22T03:35:23.874Z,72.55
2019-02-22T03:35:55.200Z,72.32
2019-02-22T03:36:26.512Z,71.85
2019-02-22T03:36:57.898Z,71.32
2019-02-22T03:37:29.203Z,70.96
2019-02-22T03:38:00.605Z,71.27
2019-02-22T03:38:32.152Z,71.12
2019-02-22T03:39:04.904Z,71.43
2019-02-22T03:39:38.283Z,71.49
2019-02-22T03:40:09.811Z,71.72
2019-02-22T03:40:41.472Z,71.58
2019-02-22T03:41:13.116Z,71.37
2019-02-22T03:41:44.701Z,71.64
2019-02-22T03:42:15.921Z,71.84
2019-02-22T03:42:47.281Z,71.54
2019-02-22T03:43:18.600Z,71.65
2019-02-22T03:43:50.037Z,71.62
2019-02-22T03:44:21.390Z,71.96
2019-02-22T03:44:52.761Z,71.96
2019-02-22T03:45:24.162Z,72.17
2019-02-22T03:45:55.421Z,72.16
2019-02-22T03:46:26.748Z,71.81
2019-02-22T03:46:58.197Z,71.47
2019-02-22T03:47:29.504Z,71.57
2019-02-22T03:48:00.975Z,71.50
2019-02-22T03:48:32.275Z,71.36
2019-02-22T03:49:03.619Z,71.45
2019-02-22T03:49:34.956Z,71.66
2019-02-22T03:50:06.853Z,71.47
2019-02-22T03:50:38.257Z,71.19
2019-02-22T03:51:09.663Z,71.33
2019-02-22T03:51:41.071Z,71.34
2019-02-22T03:52:17.195Z,71.31
2019-02-22T03:52:53.277Z,71.41
2019-02-22T03:53:26.606Z,71.62
2019-02-22T03:53:58.151Z,70.82
2019-02-22T03:54:29.542Z,70.66
2019-02-22T03:55:01.124Z,70.75
2019-02-22T03:55:33.503Z,70.76
2019-02-22T03:56:05.035Z,70.84
2019-02-22T03:56:36.474Z,70.68
2019-02-22T03:57:07.918Z,70.66
2019-02-22T03:57:39.298Z,69.89
2019-02-22T03:58:10.659Z,69.78
2019-02-22T03:58:42.127Z,69.74
2019-02-22T03:59:13.687Z,69.70
2019-02-22T03:59:45.083Z,69.81
2019-02-22T04:00:16.553Z,70.13
2019-02-22T04:00:47.931Z,69.35
2019-02-22T04:01:19.313Z,68.59
2019-02-22T04:01:50.761Z,68.87
2019-02-22T04:02:22.317Z,68.65
2019-02-22T04:02:53.800Z,68.90
2019-02-22T04:03:25.140Z,68.88
2019-02-22T04:03:56.622Z,68.69
2019-02-22T04:04:27.938Z,68.61
2019-02-22T04:04:59.304Z,68.97
2019-02-22T04:05:30.549Z,68.95
2019-02-22T04:06:01.858Z,68.68
2019-02-22T04:06:33.150Z,69.05
2019-02-22T04:07:04.636Z,68.92
2019-02-22T04:07:35.934Z,68.98
2019-02-22T04:08:07.482Z,68.95
2019-02-22T04:08:38.793Z,68.98
2019-02-22T04:09:10.229Z,68.82
2019-02-22T04:09:41.737Z,69.02
2019-02-22T04:10:13.503Z,69.11
2019-02-22T04:10:44.825Z,69.11
2019-02-22T04:11:16.455Z,68.12
2019-02-22T04:11:47.657Z,67.88
2019-02-22T04:12:19.064Z,67.12
2019-02-22T04:12:50.420Z,67.38
2019-02-22T04:13:21.772Z,67.67
2019-02-22T04:13:53.132Z,67.54
2019-02-22T04:14:24.573Z,67.35
2019-02-22T04:14:55.892Z,67.17
2019-02-22T04:15:27.321Z,67.17
2019-02-22T04:15:58.667Z,67.00
2019-02-22T04:16:30.052Z,67.12
2019-02-22T04:17:01.399Z,67.20
2019-02-22T04:17:32.719Z,67.30
2019-02-22T04:18:04.014Z,67.68
2019-02-22T04:18:35.269Z,67.99
2019-02-22T04:19:06.754Z,67.64
2019-02-22T04:19:38.188Z,67.42
2019-02-22T04:20:09.557Z,67.31
2019-02-22T04:20:40.959Z,67.37
2019-02-22T04:21:12.617Z,67.48
2019-02-22T04:21:44.029Z,67.62
2019-02-22T04:22:15.755Z,67.59
2019-02-22T04:22:47.112Z,67.26
2019-02-22T04:23:18.562Z,67.29
2019-02-22T04:23:49.851Z,66.64
2019-02-22T04:24:22.117Z,66.94
2019-02-22T04:24:53.550Z,66.96
2019-02-22T04:25:25.017Z,67.04
2019-02-22T04:25:56.548Z,67.12
2019-02-22T04:26:28.190Z,66.59
2019-02-22T04:26:59.556Z,67.25
2019-02-22T04:27:30.814Z,67.14
2019-02-22T04:28:02.179Z,67.08
2019-02-22T04:28:33.661Z,67.32
2019-02-22T04:29:05.347Z,66.94
2019-02-22T04:29:36.737Z,66.70
2019-02-22T04:30:09.178Z,67.24
2019-02-22T04:30:40.526Z,67.23
2019-02-22T04:31:11.947Z,66.60
2019-02-22T04:31:43.184Z,67.04
2019-02-22T04:32:14.612Z,66.89
2019-02-22T04:32:45.953Z,66.58
2019-02-22T04:33:17.342Z,66.83
2019-02-22T04:33:48.836Z,67.09
2019-02-22T04:34:20.315Z,66.92
2019-02-22T04:34:51.681Z,67.22
2019-02-22T04:35:23.085Z,67.05
2019-02-22T04:35:54.382Z,66.93
2019-02-22T04:36:26.747Z,66.97
2019-02-22T04:36:58.072Z,67.25
2019-02-22T04:37:29.506Z,67.18
2019-02-22T04:38:00.917Z,67.19
2019-02-22T04:38:32.287Z,67.19
2019-02-22T04:39:05.226Z,67.58
2019-02-22T04:39:36.800Z,67.61
2019-02-22T04:40:08.113Z,67.63
2019-02-22T04:40:39.448Z,67.76
2019-02-22T04:41:10.954Z,68.15
2019-02-22T04:41:42.341Z,67.97
2019-02-22T04:42:13.792Z,68.11
2019-02-22T04:42:45.189Z,67.86
2019-02-22T04:43:16.641Z,68.17
2019-02-22T04:43:48.223Z,68.09
2019-02-22T04:44:19.639Z,68.39
2019-02-22T04:44:51.085Z,68.38
2019-02-22T04:45:22.560Z,68.70
2019-02-22T04:45:54.031Z,68.70
2019-02-22T04:46:25.501Z,68.47
2019-02-22T04:46:57.009Z,68.72
2019-02-22T04:47:28.439Z,68.45
2019-02-22T04:47:59.769Z,68.47
2019-02-22T04:48:31.241Z,68.42
2019-02-22T04:49:02.582Z,68.42
2019-02-22T04:49:34.122Z,68.63
2019-02-22T04:50:06.436Z,68.63
2019-02-22T04:50:37.770Z,68.32
2019-02-22T04:51:09.094Z,68.50
2019-02-22T04:51:40.684Z,68.32
2019-02-22T04:52:12.033Z,68.39
2019-02-22T04:52:43.519Z,68.53
2019-02-22T04:53:14.774Z,68.74
2019-02-22T04:53:47.270Z,68.59
2019-02-22T04:54:18.539Z,68.98
2019-02-22T04:54:50.059Z,68.67
2019-02-22T04:55:21.277Z,68.67
2019-02-22T04:55:52.591Z,68.72
2019-02-22T04:56:23.909Z,68.97
2019-02-22T04:56:55.227Z,68.75
2019-02-22T04:57:26.610Z,68.85
2019-02-22T04:57:57.922Z,69.25
2019-02-22T04:58:29.442Z,69.33
2019-02-22T04:59:00.999Z,68.75
2019-02-22T04:59:32.595Z,68.66
2019-02-22T05:00:04.039Z,68.67
2019-02-22T05:00:35.484Z,68.59
2019-02-22T05:01:06.962Z,68.80
2019-02-22T05:01:38.377Z,68.93
2019-02-22T05:02:09.743Z,68.91
2019-02-22T05:02:41.154Z,68.60
2019-02-22T05:03:12.345Z,68.47
2019-02-22T05:03:43.844Z,68.51
2019-02-22T05:04:15.247Z,68.79
2019-02-22T05:04:46.799Z,68.25
2019-02-22T05:05:18.165Z,68.25
2019-02-22T05:05:50.471Z,68.80
2019-02-22T05:06:21.747Z,69.04
2019-02-22T05:06:54.027Z,69.00
2019-02-22T05:07:25.371Z,68.85
2019-02-22T05:07:56.805Z,68.68
2019-02-22T05:08:28.273Z,68.76
2019-02-22T05:08:59.558Z,68.64
2019-02-22T05:09:31.108Z,68.66
2019-02-22T05:10:02.810Z,68.41
2019-02-22T05:10:34.302Z,68.34
2019-02-22T05:11:05.761Z,68.44
2019-02-22T05:11:37.173Z,68.65
2019-02-22T05:12:11.219Z,68.71
2019-02-22T05:12:41.832Z,68.60
2019-02-22T05:13:13.234Z,68.76
2019-02-22T05:13:45.628Z,69.05
2019-02-22T05:14:16.853Z,69.12
2019-02-22T05:14:48.358Z,69.00
2019-02-22T05:15:19.616Z,68.84
2019-02-22T05:15:51.027Z,68.60
2019-02-22T05:16:22.328Z,68.73
2019-02-22T05:16:53.676Z,68.67
2019-02-22T05:17:25.133Z,68.67
2019-02-22T05:17:56.416Z,68.90
2019-02-22T05:18:27.719Z,68.88
2019-02-22T05:18:59.049Z,68.55
2019-02-22T05:19:30.311Z,68.64
2019-02-22T05:20:01.905Z,68.54
2019-02-22T05:20:33.333Z,68.83
2019-02-22T05:21:04.826Z,68.82
2019-02-22T05:21:36.237Z,68.60
2019-02-22T05:22:07.533Z,68.48
2019-02-22T05:22:39.020Z,68.33
2019-02-22T05:23:10.405Z,68.39
2019-02-22T05:23:41.876Z,68.39
2019-02-22T05:24:13.615Z,68.45
2019-02-22T05:24:45.050Z,68.47
2019-02-22T05:25:16.516Z,68.61
2019-02-22T05:25:48.049Z,68.82
2019-02-22T05:26:19.514Z,68.52
2019-02-22T05:26:50.992Z,68.35
2019-02-22T05:27:22.503Z,68.38
2019-02-22T05:27:54.990Z,68.26
2019-02-22T05:28:26.361Z,68.40
2019-02-22T05:28:57.763Z,68.45
2019-02-22T05:29:29.164Z,68.31
2019-02-22T05:30:00.544Z,68.12
2019-02-22T05:30:31.887Z,67.79
2019-02-22T05:31:03.231Z,67.75
2019-02-22T05:31:34.543Z,67.79
2019-02-22T05:32:05.933Z,67.74
2019-02-22T05:32:37.459Z,67.81
2019-02-22T05:33:09.871Z,67.92
2019-02-22T05:33:41.123Z,67.66
2019-02-22T05:34:12.593Z,67.82
2019-02-22T05:34:43.959Z,67.62
2019-02-22T05:35:15.660Z,67.61
2019-02-22T05:35:46.856Z,68.00
2019-02-22T05:36:18.251Z,68.09
2019-02-22T05:36:49.514Z,68.19
2019-02-22T05:37:21.591Z,68.07
2019-02-22T05:37:52.988Z,67.87
2019-02-22T05:38:24.511Z,67.42
2019-02-22T05:38:55.869Z,67.60
2019-02-22T05:39:27.411Z,67.59
2019-02-22T05:39:58.923Z,67.54
2019-02-22T05:40:30.490Z,67.57
2019-02-22T05:41:01.869Z,67.38
2019-02-22T05:41:33.418Z,67.26
2019-02-22T05:42:04.837Z,67.57
2019-02-22T05:42:36.157Z,67.64
2019-02-22T05:43:07.484Z,67.68
2019-02-22T05:43:38.837Z,67.50
2019-02-22T05:44:10.128Z,67.57
2019-02-22T05:44:41.452Z,67.10
2019-02-22T05:45:12.925Z,67.04
2019-02-22T05:45:44.207Z,67.01
2019-02-22T05:46:15.726Z,66.97
2019-02-22T05:46:47.017Z,67.00
2019-02-22T05:47:18.336Z,67.05
2019-02-22T05:47:49.747Z,67.19
2019-02-22T05:48:22.161Z,66.91
2019-02-22T05:48:53.472Z,66.91
2019-02-22T05:49:24.899Z,67.04
2019-02-22T05:49:56.227Z,67.08
2019-02-22T05:50:27.499Z,67.01
2019-02-22T05:50:58.847Z,67.09
2019-02-22T05:51:30.248Z,67.01
2019-02-22T05:52:01.522Z,67.06
2019-02-22T05:52:32.937Z,66.84
2019-02-22T05:53:04.514Z,66.90
2019-02-22T05:53:36.072Z,66.85
2019-02-22T05:54:07.508Z,66.87
2019-02-22T05:54:38.892Z,67.13
2019-02-22T05:55:10.421Z,66.76
2019-02-22T05:55:44.139Z,66.86
2019-02-22T05:56:15.171Z,66.56
2019-02-22T05:56:46.707Z,66.85
2019-02-22T05:57:18.148Z,66.80
2019-02-22T05:57:49.645Z,66.54
2019-02-22T05:58:21.061Z,66.62
2019-02-22T05:58:52.427Z,66.41
2019-02-22T05:59:23.844Z,66.22
2019-02-22T05:59:55.264Z,66.21
2019-02-22T06:00:26.780Z,66.36
2019-02-22T06:00:58.003Z,66.13
2019-02-22T06:01:29.445Z,65.99
2019-02-22T06:02:00.769Z,66.19
2019-02-22T06:02:34.062Z,66.15
2019-02-22T06:03:06.047Z,66.19
2019-02-22T06:03:37.538Z,66.44
2019-02-22T06:04:08.935Z,66.17
2019-02-22T06:04:40.430Z,66.50
2019-02-22T06:05:11.780Z,66.27
2019-02-22T06:05:43.121Z,66.44
2019-02-22T06:06:14.446Z,66.55
2019-02-22T06:06:45.922Z,66.65
2019-02-22T06:07:17.281Z,66.88
2019-02-22T06:07:48.794Z,66.76
2019-02-22T06:08:20.224Z,66.58
2019-02-22T06:08:51.586Z,66.33
2019-02-22T06:09:23.088Z,66.02
2019-02-22T06:09:54.500Z,66.12
2019-02-22T06:10:26.960Z,66.17
2019-02-22T06:10:58.443Z,66.31
2019-02-22T06:11:29.938Z,66.37
2019-02-22T06:12:01.188Z,66.38
2019-02-22T06:12:34.894Z,66.53
2019-02-22T06:13:06.546Z,66.64
2019-02-22T06:13:37.927Z,66.64
2019-02-22T06:14:09.445Z,66.71
2019-02-22T06:14:40.967Z,66.54
2019-02-22T06:15:12.243Z,66.61
2019-02-22T06:15:43.563Z,66.31
2019-02-22T06:16:14.842Z,66.23
2019-02-22T06:16:46.323Z,66.35
2019-02-22T06:17:17.675Z,66.11
2019-02-22T06:17:49.041Z,66.17
2019-02-22T06:18:23.036Z,66.28
2019-02-22T06:18:53.685Z,66.52
2019-02-22T06:19:26.156Z,66.71
2019-02-22T06:19:57.547Z,66.36
2019-02-22T06:20:29.095Z,66.57
2019-02-22T06:21:00.559Z,66.89
2019-02-22T06:21:31.861Z,66.41
2019-02-22T06:22:04.164Z,66.10
2019-02-22T06:22:35.620Z,66.12
2019-02-22T06:23:07.028Z,66.51
2019-02-22T06:23:38.540Z,66.37
2019-02-22T06:24:09.919Z,66.66
2019-02-22T06:24:41.456Z,66.40
2019-02-22T06:25:12.891Z,66.25
2019-02-22T06:25:44.417Z,66.15
2019-02-22T06:26:15.716Z,66.00
2019-02-22T06:26:47.144Z,65.97
2019-02-22T06:27:18.609Z,65.92
2019-02-22T06:27:50.023Z,65.75
2019-02-22T06:28:21.294Z,66.12
2019-02-22T06:28:52.623Z,66.40
2019-02-22T06:29:24.153Z,65.87
2019-02-22T06:29:55.638Z,66.12
2019-02-22T06:30:27.111Z,66.33
2019-02-22T06:30:58.325Z,66.21
2019-02-22T06:31:29.610Z,66.55
2019-02-22T06:32:00.935Z,66.27
2019-02-22T06:32:32.417Z,66.00
2019-02-22T06:33:03.702Z,65.63
2019-02-22T06:33:35.155Z,65.81
2019-02-22T06:34:06.569Z,65.81
2019-02-22T06:34:37.903Z,65.93
2019-02-22T06:35:10.411Z,65.79
2019-02-22T06:35:41.790Z,65.67
2019-02-22T06:36:13.337Z,65.66
2019-02-22T06:36:44.766Z,65.64
2019-02-22T06:37:16.163Z,65.88
2019-02-22T06:37:47.678Z,66.21
2019-02-22T06:38:19.089Z,65.91
2019-02-22T06:38:50.581Z,65.99
2019-02-22T06:39:21.991Z,65.92
2019-02-22T06:39:53.540Z,65.51
2019-02-22T06:40:24.905Z,65.56
2019-02-22T06:40:56.313Z,65.58
2019-02-22T06:41:28.751Z,65.92
2019-02-22T06:42:00.259Z,65.82
2019-02-22T06:42:32.578Z,65.84
2019-02-22T06:43:04.832Z,65.85
2019-02-22T06:43:36.349Z,65.94
2019-02-22T06:44:07.709Z,65.82
2019-02-22T06:44:39.122Z,65.46
2019-02-22T06:45:10.435Z,65.42
2019-02-22T06:45:41.823Z,65.70
2019-02-22T06:46:13.681Z,65.81
2019-02-22T06:46:44.960Z,66.11